Time;durP1;ratioP1;P1;durP2;ratioP2;P2;SDS_P1;SDS_P2;PMS_P1;PMS_P2;Temp;Humidity;BMP_temperature;BMP_pressure;BME280_temperature;BME280_humidity;BME280_pressure;Samples;Min_cycle;Max_cycle;Signal;HPM_P1;HPM_P2
2022/05/10 00:00:43;;;;;;;12.82;7.60;;;;;;;11.95;100.00;101909.25;10443609;28;20033;-73
2022/05/10 00:05:44;;;;;;;16.95;7.07;;;;;;;11.87;100.00;101902.97;10460713;28;20067;-73
2022/05/10 00:10:44;;;;;;;12.55;7.18;;;;;;;11.74;100.00;101885.78;10444491;28;20036;-73
2022/05/10 00:15:45;;;;;;;13.90;6.22;;;;;;;11.66;100.00;101885.06;10427667;28;20044;-73
2022/05/10 00:20:45;;;;;;;15.68;6.88;;;;;;;11.70;100.00;101877.19;10459952;28;20117;-73
2022/05/10 00:25:46;;;;;;;12.20;5.97;;;;;;;11.75;100.00;101881.97;10483865;28;20040;-72
2022/05/10 00:30:48;;;;;;;14.05;5.93;;;;;;;11.64;100.00;101853.31;10450913;28;20048;-73
2022/05/10 00:35:50;;;;;;;10.15;5.70;;;;;;;11.82;100.00;101872.47;10467654;28;20067;-72
2022/05/10 00:40:51;;;;;;;13.55;6.40;;;;;;;11.88;100.00;101877.09;10484353;28;20036;-74
2022/05/10 00:46:16;;;;;;;16.67;5.63;;;;;;;11.93;100.00;101862.59;10467845;28;20032;-73
2022/05/10 00:51:26;;;;;;;10.95;6.05;;;;;;;12.13;100.00;101872.44;10485816;28;20044;-72
2022/05/10 00:56:34;;;;;;;8.30;5.72;;;;;;;12.16;100.00;101852.63;10482178;28;20040;-74
2022/05/10 01:01:34;;;;;;;10.07;5.40;;;;;;;12.13;100.00;101847.56;10499817;28;20044;-73
2022/05/10 01:06:39;;;;;;;11.38;5.20;;;;;;;12.15;100.00;101842.66;10463849;28;20041;-72
2022/05/10 01:11:56;;;;;;;13.02;5.43;;;;;;;12.15;100.00;101842.66;10452251;28;20051;-73
2022/05/10 01:16:57;;;;;;;11.77;6.30;;;;;;;12.09;100.00;101849.97;10463674;28;20831;-74
2022/05/10 01:22:17;;;;;;;14.05;5.88;;;;;;;12.10;100.00;101840.63;10465031;28;20096;-74
2022/05/10 01:27:36;;;;;;;10.23;5.65;;;;;;;12.06;100.00;101850.47;10472283;28;20048;-73
2022/05/10 01:39:18;;;;;;;13.30;5.88;;;;;;;12.14;100.00;101836.31;10446163;28;20045;-74
2022/05/10 01:44:37;;;;;;;11.73;5.63;;;;;;;12.12;100.00;101821.91;10422261;28;20509;-74
2022/05/10 01:49:40;;;;;;;9.75;5.05;;;;;;;12.13;100.00;101812.53;10456387;28;20049;-73
2022/05/10 01:54:40;;;;;;;9.45;5.60;;;;;;;12.13;100.00;101807.00;10506897;28;20404;-72
2022/05/10 01:59:44;;;;;;;8.93;6.20;;;;;;;11.97;100.00;101785.66;10479885;28;20092;-73
2022/05/10 02:04:45;;;;;;;12.65;6.60;;;;;;;11.99;100.00;101792.63;10480067;28;20032;-73
2022/05/10 02:09:49;;;;;;;11.52;6.40;;;;;;;11.85;100.00;101802.22;10446045;28;20059;-74
2022/05/10 02:14:52;;;;;;;9.27;5.35;;;;;;;11.88;100.00;101799.81;10480764;28;20143;-73
2022/05/10 02:20:05;;;;;;;9.45;6.20;;;;;;;11.84;100.00;101787.56;10479713;28;20120;-74
2022/05/10 02:25:17;;;;;;;11.93;6.63;;;;;;;11.77;100.00;101786.84;10424043;28;20029;-73
2022/05/10 02:30:26;;;;;;;11.40;6.70;;;;;;;11.67;100.00;101779.16;10438293;28;20104;-73
2022/05/10 02:35:26;;;;;;;16.27;7.88;;;;;;;11.69;100.00;101773.41;10437944;28;20048;-74
2022/05/10 02:40:27;;;;;;;13.70;7.80;;;;;;;11.63;100.00;101764.19;10421515;28;20231;-73
2022/05/10 02:45:27;;;;;;;18.67;7.93;;;;;;;11.71;100.00;101762.97;10462221;28;20059;-73
2022/05/10 02:50:32;;;;;;;15.70;8.63;;;;;;;11.71;100.00;101758.28;10437343;28;20064;-73
2022/05/10 02:56:01;;;;;;;16.38;8.43;;;;;;;11.78;100.00;101766.47;10452145;28;20881;-73
2022/05/10 03:01:08;;;;;;;16.23;8.07;;;;;;;11.78;100.00;101755.44;10436494;28;20040;-73
2022/05/10 03:06:08;;;;;;;16.08;8.55;;;;;;;11.68;100.00;101733.13;10453960;28;20048;-73
2022/05/10 03:11:09;;;;;;;21.55;9.63;;;;;;;11.81;100.00;101749.44;10422073;28;20037;-73
2022/05/10 03:16:09;;;;;;;17.95;9.15;;;;;;;11.82;100.00;101740.06;10420376;28;20394;-73
2022/05/10 03:21:10;;;;;;;23.02;10.05;;;;;;;11.83;100.00;101735.41;10458541;28;20037;-73
2022/05/10 03:26:11;;;;;;;13.82;9.63;;;;;;;11.75;100.00;101720.03;10461806;28;20041;-73
2022/05/10 03:31:13;;;;;;;18.33;11.32;;;;;;;11.83;100.00;101722.44;10461092;28;20041;-74
2022/05/10 03:36:13;;;;;;;18.27;10.63;;;;;;;11.85;100.00;101725.78;10445529;28;20063;-73
2022/05/10 03:41:15;;;;;;;19.20;11.38;;;;;;;11.88;100.00;101719.81;10445985;28;20071;-74
2022/05/10 03:46:15;;;;;;;18.65;10.93;;;;;;;11.91;100.00;101724.84;10460246;28;20040;-74
2022/05/10 03:51:17;;;;;;;21.77;12.18;;;;;;;11.84;100.00;101710.31;10442713;28;20524;-74
2022/05/10 03:56:18;;;;;;;22.52;11.70;;;;;;;11.86;100.00;101708.13;10426706;28;20481;-74
2022/05/10 04:01:19;;;;;;;22.40;12.88;;;;;;;11.83;100.00;101708.63;10443319;28;20037;-73
2022/05/10 04:06:19;;;;;;;19.83;12.13;;;;;;;11.84;100.00;101715.81;10447581;28;20040;-71
2022/05/10 04:11:20;;;;;;;23.15;12.88;;;;;;;11.82;100.00;101719.91;10445257;28;20037;-72
2022/05/10 04:16:21;;;;;;;20.17;12.30;;;;;;;11.84;100.00;101715.81;10459488;28;20087;-74
2022/05/10 04:21:21;;;;;;;21.33;12.88;;;;;;;12.03;100.00;101715.69;10425936;28;20047;-73
2022/05/10 04:26:22;;;;;;;20.48;12.27;;;;;;;12.16;100.00;101706.31;10420418;28;20037;-73
2022/05/10 04:31:23;;;;;;;18.95;12.50;;;;;;;12.26;100.00;101712.06;10440585;28;20033;-73
2022/05/10 04:36:25;;;;;;;17.90;12.63;;;;;;;12.32;100.00;101700.88;10476498;28;20044;-73
2022/05/10 04:41:27;;;;;;;21.80;13.13;;;;;;;12.40;100.00;101707.06;10443234;28;20041;-73
2022/05/10 04:46:28;;;;;;;19.27;12.50;;;;;;;12.59;100.00;101705.78;10441923;28;20037;-74
2022/05/10 04:51:28;;;;;;;21.90;12.15;;;;;;;12.66;100.00;101700.94;10475795;28;20033;-73
2022/05/10 04:56:29;;;;;;;19.05;12.40;;;;;;;12.80;100.00;101708.94;10499539;28;20045;-74
2022/05/10 05:01:31;;;;;;;18.75;12.20;;;;;;;12.51;100.00;101637.16;10498608;28;20047;-73
2022/05/10 05:06:33;;;;;;;20.65;12.55;;;;;;;13.09;100.00;101706.94;10473880;28;20049;-73
2022/05/10 05:11:34;;;;;;;18.80;11.55;;;;;;;13.22;100.00;101698.31;10466837;28;20389;-75
2022/05/10 05:16:34;;;;;;;20.20;11.57;;;;;;;13.39;100.00;101705.78;10498921;28;20033;-74
2022/05/10 05:21:35;;;;;;;18.67;11.93;;;;;;;13.54;100.00;101708.81;10499140;28;20032;-74
2022/05/10 05:26:35;;;;;;;16.77;12.52;;;;;;;13.63;100.00;101693.44;10455688;28;20033;-72
2022/05/10 05:31:36;;;;;;;22.42;12.75;;;;;;;13.79;100.00;101693.63;10457800;28;20066;-73
2022/05/10 05:36:36;;;;;;;20.25;12.23;;;;;;;14.02;100.00;101703.66;10442132;28;20033;-73
2022/05/10 05:41:37;;;;;;;17.55;12.02;;;;;;;14.11;100.00;101693.78;10458396;28;20029;-74
2022/05/10 05:46:37;;;;;;;24.65;13.40;;;;;;;14.07;100.00;101681.53;10456335;28;20033;-73
2022/05/10 05:51:38;;;;;;;19.45;12.50;;;;;;;14.31;100.00;101705.09;10444097;28;20037;-73
2022/05/10 05:56:38;;;;;;;22.48;12.30;;;;;;;14.46;100.00;101690.59;10480246;28;20033;-74
2022/05/10 06:01:38;;;;;;;18.92;13.05;;;;;;;14.61;100.00;101687.16;10496201;28;20028;-73
2022/05/10 06:06:39;;;;;;;23.77;13.40;;;;;;;14.79;100.00;101682.34;10482716;28;20043;-72
2022/05/10 06:11:40;;;;;;;28.48;12.60;;;;;;;14.89;100.00;101683.28;10497236;28;20028;-73
2022/05/10 06:16:41;;;;;;;19.70;12.30;;;;;;;15.09;100.00;101684.56;10456085;28;20063;-74
2022/05/10 06:21:43;;;;;;;19.02;12.63;;;;;;;15.22;100.00;101674.97;10438961;28;20075;-71
2022/05/10 06:26:43;;;;;;;18.05;12.80;;;;;;;15.41;100.00;101689.25;10459314;28;20048;-73
2022/05/10 06:31:44;;;;;;;20.92;12.95;;;;;;;15.59;100.00;101663.81;10478647;28;20177;-73
2022/05/10 06:36:45;;;;;;;18.73;13.40;;;;;;;15.78;100.00;101658.69;10465048;28;20092;-72
2022/05/10 06:41:45;;;;;;;16.27;12.70;;;;;;;16.01;100.00;101651.00;10479055;28;20043;-72
2022/05/10 06:46:45;;;;;;;19.83;12.88;;;;;;;16.19;100.00;101635.78;10444669;28;20024;-73
2022/05/10 06:51:46;;;;;;;19.60;11.63;;;;;;;16.54;100.00;101637.81;10492782;28;20052;-73
2022/05/10 06:56:47;;;;;;;22.83;12.23;;;;;;;16.99;100.00;101630.63;10477340;28;20052;-73
2022/05/10 07:01:47;;;;;;;18.88;13.43;;;;;;;17.49;100.00;101623.28;10477684;28;20033;-73
2022/05/10 07:06:48;;;;;;;16.95;11.25;;;;;;;18.07;100.00;101624.78;10479605;28;20098;-72
2022/05/10 07:11:48;;;;;;;13.85;9.38;;;;;;;18.58;100.00;101599.31;10472612;28;20029;-74
2022/05/10 07:16:48;;;;;;;14.48;9.52;;;;;;;18.83;99.21;101600.28;10489350;28;20025;-73
2022/05/10 07:21:49;;;;;;;12.43;8.45;;;;;;;19.08;96.34;101577.72;10451250;28;20052;-72
2022/05/10 07:26:50;;;;;;;14.38;9.38;;;;;;;19.09;93.49;101565.41;10435502;28;20448;-73
2022/05/10 07:31:53;;;;;;;14.70;7.90;;;;;;;19.21;93.13;101572.56;10453360;28;20047;-73
2022/05/10 07:36:53;;;;;;;11.15;6.28;;;;;;;19.58;90.00;101569.06;10457080;28;20036;-74
2022/05/10 07:41:54;;;;;;;10.82;5.80;;;;;;;19.86;86.75;101550.53;10492918;28;20024;-75
2022/05/10 07:46:54;;;;;;;11.05;6.07;;;;;;;20.19;82.94;101547.00;10508705;28;20062;-73
2022/05/10 07:51:55;;;;;;;11.50;6.13;;;;;;;20.54;80.10;101520.44;10475640;28;20514;-73
2022/05/10 07:56:55;;;;;;;10.88;6.07;;;;;;;20.88;77.40;101516.50;10450771;28;20036;-74
2022/05/10 08:01:56;;;;;;;14.65;5.45;;;;;;;21.21;76.55;101517.25;10494073;28;20040;-75
2022/05/10 08:06:56;;;;;;;12.70;5.05;;;;;;;21.16;72.85;101498.56;10482739;28;20098;-71
2022/05/10 08:11:56;;;;;;;7.07;4.47;;;;;;;21.41;71.55;101487.97;10502307;28;20025;-75
2022/05/10 08:16:57;;;;;;;10.07;4.70;;;;;;;22.00;71.42;101495.69;10499493;28;20032;-73
2022/05/10 08:21:58;;;;;;;9.63;4.30;;;;;;;22.32;69.76;101492.66;10459241;28;20045;-75
2022/05/10 08:26:59;;;;;;;14.65;4.22;;;;;;;22.41;67.99;101486.25;10497828;28;20054;-74
2022/05/10 08:31:59;;;;;;;10.93;4.85;;;;;;;22.22;65.68;101478.88;10503777;28;20068;-74
2022/05/10 08:37:03;;;;;;;16.88;4.57;;;;;;;22.44;66.93;101483.66;10504357;28;20028;-76
2022/05/10 08:42:17;;;;;;;11.75;5.10;;;;;;;22.48;65.94;101486.66;10483975;28;20037;-72
2022/05/10 08:47:18;;;;;;;16.13;5.32;;;;;;;22.31;66.13;101470.53;10488639;28;20040;-74
2022/05/10 08:52:18;;;;;;;10.73;4.70;;;;;;;22.53;65.58;101469.69;10438557;28;20036;-74
2022/05/10 08:57:56;;;;;;;9.73;4.57;;;;;;;23.08;65.24;101466.50;10463285;28;20059;-78
2022/05/10 09:02:58;;;;;;;9.85;4.15;;;;;;;23.02;63.79;101445.34;10473732;28;20025;-75
2022/05/10 09:08:20;;;;;;;12.93;5.00;;;;;;;23.09;63.36;101423.25;10424010;28;20037;-73
2022/05/10 09:13:21;;;;;;;12.90;4.57;;;;;;;23.27;63.90;101451.34;10440465;28;20037;-75
2022/05/10 09:18:27;;;;;;;8.45;3.85;;;;;;;23.03;64.17;101430.16;10423004;28;20044;-72
2022/05/10 09:23:27;;;;;;;6.83;3.77;;;;;;;23.15;62.68;101418.28;10441923;28;20128;-72
2022/05/10 09:28:40;;;;;;;7.60;3.85;;;;;;;22.97;61.61;101428.63;10457658;28;20307;-74
2022/05/10 09:39:11;;;;;;;9.52;3.85;;;;;;;22.60;61.87;101422.34;10427961;28;20036;-75
2022/05/10 09:44:22;;;;;;;5.70;3.38;;;;;;;22.31;63.29;101418.06;10439504;28;20036;-71
2022/05/10 09:49:34;;;;;;;8.48;3.97;;;;;;;22.25;63.99;101410.94;10457173;28;20033;-73
2022/05/10 09:54:37;;;;;;;6.47;3.95;;;;;;;22.29;63.83;101403.53;10448936;28;20094;-73
2022/05/10 09:59:45;;;;;;;6.28;3.45;;;;;;;22.50;64.25;101398.19;10470942;28;20100;-72
2022/05/10 10:04:48;;;;;;;10.98;4.30;;;;;;;22.79;63.90;101385.63;10472152;28;20041;-72
2022/05/10 10:09:51;;;;;;;5.93;3.70;;;;;;;23.09;64.30;101378.31;10469711;28;20067;-72
2022/05/10 10:14:52;;;;;;;10.88;5.00;;;;;;;23.29;63.99;101374.03;10421939;28;20100;-71
2022/05/10 10:20:01;;;;;;;10.05;4.55;;;;;;;23.63;63.42;101391.25;10439563;28;20048;-72
2022/05/10 10:25:04;;;;;;;12.68;5.13;;;;;;;23.50;64.00;101388.28;10456419;28;20047;-68
2022/05/10 10:30:25;;;;;;;11.23;5.13;;;;;;;23.40;64.29;101393.38;10485569;28;20041;-69
2022/05/10 10:35:39;;;;;;;11.30;4.43;;;;;;;23.33;63.06;101388.25;10498545;28;20055;-67
2022/05/10 10:40:42;;;;;;;11.82;4.40;;;;;;;23.07;62.73;101376.97;10497909;28;20044;-69
2022/05/10 10:45:46;;;;;;;14.68;4.65;;;;;;;23.17;63.07;101363.44;10471624;28;20044;-69
2022/05/10 10:50:46;;;;;;;15.32;4.80;;;;;;;23.58;61.53;101361.31;10495036;28;20064;-67
2022/05/10 10:56:05;;;;;;;15.40;4.30;;;;;;;24.00;60.67;101343.91;10496007;28;20036;-68
2022/05/10 11:01:31;;;;;;;7.15;4.25;;;;;;;24.05;60.97;101340.94;10458808;28;20040;-69
2022/05/10 11:06:52;;;;;;;6.15;4.03;;;;;;;24.48;60.03;101326.72;10456052;28;20037;-68
2022/05/10 11:12:13;;;;;;;14.75;4.30;;;;;;;24.69;58.39;101326.81;10454040;28;20041;-68
2022/05/10 11:18:03;;;;;;;7.07;3.72;;;;;;;24.25;59.24;101326.16;10454298;28;20051;-70
2022/05/10 11:23:06;;;;;;;11.40;4.20;;;;;;;23.88;61.45;101331.38;10452278;28;20037;-69
2022/05/10 11:28:21;;;;;;;12.10;4.72;;;;;;;23.63;59.76;101324.63;10480256;28;20041;-67
2022/05/10 11:33:40;;;;;;;6.37;4.20;;;;;;;23.57;61.60;101337.19;10497094;28;20037;-68
2022/05/10 11:38:55;;;;;;;9.93;5.13;;;;;;;23.38;60.90;101334.72;10478836;28;20037;-70
2022/05/10 11:44:01;;;;;;;9.73;5.50;;;;;;;22.94;62.86;101330.97;10501672;28;20067;-68
2022/05/10 11:49:27;;;;;;;8.98;4.88;;;;;;;22.85;64.90;101327.34;10463694;28;20059;-72
2022/05/10 11:54:31;;;;;;;9.30;5.88;;;;;;;22.45;67.23;101272.09;10461305;28;20053;-70
2022/05/10 11:59:34;;;;;;;17.52;5.78;;;;;;;23.00;65.91;101321.25;10480515;28;20096;-69
2022/05/10 12:04:47;;;;;;;16.77;5.85;;;;;;;23.26;66.40;101312.06;10484788;28;20048;-70
2022/05/10 12:09:56;;;;;;;7.88;5.43;;;;;;;23.63;64.28;101301.31;10469453;28;20041;-69
2022/05/10 12:25:53;;;;;;;12.57;5.13;;;;;;;24.50;63.74;101303.91;10487364;28;20384;-69
2022/05/10 12:30:54;;;;;;;9.52;5.45;;;;;;;24.26;61.31;101274.34;10482172;28;20048;-68
2022/05/10 12:36:07;;;;;;;12.02;5.28;;;;;;;24.31;60.63;101262.91;10499998;28;20037;-68
2022/05/10 12:41:12;;;;;;;10.25;5.20;;;;;;;24.33;60.62;101274.66;10493646;28;20115;-68
2022/05/10 12:46:18;;;;;;;14.55;5.20;;;;;;;24.32;59.82;101266.53;10467132;28;20043;-68
2022/05/10 12:51:44;;;;;;;14.68;4.30;;;;;;;24.02;60.53;101265.66;10497512;28;20037;-68
2022/05/10 12:56:54;;;;;;;15.57;4.40;;;;;;;24.24;59.29;101259.78;10482201;28;20247;-70
2022/05/10 13:01:54;;;;;;;10.02;3.55;;;;;;;24.70;59.58;101249.63;10476719;28;20355;-69
2022/05/10 13:07:22;;;;;;;8.50;4.10;;;;;;;25.23;58.78;101250.06;10450213;28;20357;-67
2022/05/10 13:12:26;;;;;;;17.65;4.40;;;;;;;25.08;57.65;101245.88;10485199;28;20043;-69
2022/05/10 13:17:28;;;;;;;14.05;4.80;;;;;;;24.31;58.00;101257.28;10498878;28;20107;-70
2022/05/10 13:22:28;;;;;;;8.18;4.38;;;;;;;23.93;59.09;101244.03;10466116;28;20035;-68
2022/05/10 13:27:36;;;;;;;16.73;4.13;;;;;;;23.62;60.21;101232.19;10497860;28;20036;-68
2022/05/10 13:32:41;;;;;;;11.85;4.68;;;;;;;23.66;59.82;101255.66;10499928;28;20455;-71
2022/05/10 13:37:53;;;;;;;12.52;4.68;;;;;;;23.53;60.16;101257.50;10501395;28;20062;-70
2022/05/10 13:42:53;;;;;;;8.68;4.38;;;;;;;23.33;59.91;101242.97;10482614;28;20246;-68
2022/05/10 13:48:08;;;;;;;11.15;3.50;;;;;;;23.75;60.56;101246.06;10465118;28;20047;-67
2022/05/10 13:53:10;;;;;;;11.00;3.85;;;;;;;23.36;59.32;101263.97;10499254;28;20494;-68
2022/05/10 13:58:14;;;;;;;8.70;3.53;;;;;;;23.61;59.52;101241.81;10457783;28;20037;-69
2022/05/10 14:03:20;;;;;;;12.15;3.30;;;;;;;24.05;59.31;101253.75;10456124;28;20041;-67
2022/05/10 14:08:24;;;;;;;;;;;;;;;23.72;59.73;101248.69;10457206;28;20040;-67
2022/05/10 14:13:25;;;;;;;13.30;3.50;;;;;;;23.49;59.83;101240.47;10458817;28;19939;-69
2022/05/10 14:18:27;;;;;;;7.03;3.08;;;;;;;23.32;59.43;101257.38;10449014;28;20060;-67
2022/05/10 14:23:27;;;;;;;10.77;3.28;;;;;;;23.12;59.11;101239.19;10458183;28;20056;-67
2022/05/10 14:28:33;;;;;;;9.25;3.00;;;;;;;22.46;59.92;101268.13;10438864;28;20048;-67
2022/05/10 14:33:41;;;;;;;11.10;2.65;;;;;;;22.42;60.58;101263.50;10455810;28;20048;-69
2022/05/10 14:38:44;;;;;;;16.88;2.50;;;;;;;22.25;59.00;101258.66;10457583;28;20531;-68
2022/05/10 14:43:45;;;;;;;8.57;2.60;;;;;;;22.00;59.40;101263.00;10457451;28;20052;-67
2022/05/10 14:48:54;;;;;;;11.00;2.03;;;;;;;21.61;59.49;101256.19;10456787;28;20052;-68
2022/05/10 14:53:54;;;;;;;16.80;2.15;;;;;;;21.11;56.64;101254.31;10456142;28;20052;-67
2022/05/10 14:59:04;;;;;;;8.32;1.70;;;;;;;20.93;54.76;101242.94;10456762;28;20427;-69
2022/05/10 15:04:13;;;;;;;8.25;1.35;;;;;;;20.56;53.60;101255.22;10453031;28;20033;-67
2022/05/10 15:09:13;;;;;;;8.15;1.27;;;;;;;20.33;53.22;101246.75;10472137;28;20112;-68
2022/05/10 15:14:14;;;;;;;7.38;0.85;;;;;;;20.35;52.33;101249.22;10480757;28;20031;-69
2022/05/10 15:19:14;;;;;;;1.98;0.80;;;;;;;20.34;53.29;101248.41;10506628;28;20037;-69
2022/05/10 15:24:15;;;;;;;8.25;0.98;;;;;;;20.31;52.11;101237.84;10474050;28;20040;-70
2022/05/10 15:29:27;;;;;;;5.07;0.70;;;;;;;20.17;54.40;101253.78;10501177;28;20037;-68
2022/05/10 15:34:42;;;;;;;6.75;1.40;;;;;;;19.78;55.41;101268.22;10502585;28;20091;-69
2022/05/10 15:39:43;;;;;;;3.58;0.80;;;;;;;19.51;54.09;101267.81;10488126;28;20519;-69
2022/05/10 15:44:43;;;;;;;4.80;0.75;;;;;;;19.33;53.82;101247.19;10505775;28;20032;-68
2022/05/10 15:49:44;;;;;;;7.22;0.70;;;;;;;19.26;53.10;101257.88;10469850;28;20032;-66
2022/05/10 15:54:44;;;;;;;1.80;0.60;;;;;;;19.11;53.07;101239.44;10500812;28;20056;-66
2022/05/10 15:59:45;;;;;;;2.70;0.77;;;;;;;18.89;51.85;101248.44;10502968;28;20043;-67
2022/05/10 16:04:45;;;;;;;3.97;0.60;;;;;;;18.81;51.95;101270.56;10456573;28;20047;-69
2022/05/10 16:09:46;;;;;;;2.70;0.77;;;;;;;18.54;52.40;101250.56;10502812;28;20025;-66
2022/05/10 16:14:46;;;;;;;5.72;1.38;;;;;;;18.43;56.32;101303.94;10474627;28;20082;-67
2022/05/10 16:19:47;;;;;;;4.85;0.82;;;;;;;17.72;58.57;101220.00;10497870;28;20435;-67
2022/05/10 16:24:47;;;;;;;4.05;1.02;;;;;;;17.72;59.75;101298.78;10459125;28;20404;-68
2022/05/10 16:29:48;;;;;;;6.82;1.52;;;;;;;17.59;61.25;101298.63;10476076;28;20056;-67
2022/05/10 16:34:49;;;;;;;6.35;0.80;;;;;;;17.60;62.63;101262.13;10487870;28;20045;-67
2022/05/10 16:39:49;;;;;;;2.90;1.00;;;;;;;17.50;63.28;101268.63;10459809;28;20048;-66
2022/05/10 16:44:50;;;;;;;2.67;0.80;;;;;;;17.49;62.99;101269.75;10463355;28;20033;-67
2022/05/10 16:49:50;;;;;;;4.13;0.70;;;;;;;17.45;64.08;101281.78;10460419;28;20058;-69
2022/05/10 16:54:51;;;;;;;5.55;1.33;;;;;;;17.31;64.68;101274.06;10458433;28;20967;-66
2022/05/10 16:59:51;;;;;;;1.65;0.75;;;;;;;17.29;64.09;101278.28;10464174;28;20028;-70
2022/05/10 17:04:52;;;;;;;2.95;0.90;;;;;;;17.39;64.92;101271.81;10500662;28;20037;-65
2022/05/10 17:09:55;;;;;;;3.92;0.90;;;;;;;17.37;63.24;101233.13;10482434;28;20083;-66
2022/05/10 17:14:56;;;;;;;3.88;1.33;;;;;;;17.51;64.14;101236.91;10498051;28;20120;-66
2022/05/10 17:19:56;;;;;;;4.40;1.15;;;;;;;17.41;62.97;101186.88;10500515;28;20381;-66
2022/05/10 17:24:57;;;;;;;2.10;0.80;;;;;;;17.81;63.17;101243.28;10498404;28;20477;-68
2022/05/10 17:29:58;;;;;;;3.45;0.93;;;;;;;17.91;63.71;101247.94;10497879;28;21170;-67
2022/05/10 17:34:58;;;;;;;4.88;1.48;;;;;;;17.99;62.77;101257.63;10498611;28;20056;-67
2022/05/10 17:39:59;;;;;;;5.13;1.10;;;;;;;17.91;63.10;101262.69;10499229;28;20033;-66
2022/05/10 17:44:59;;;;;;;4.65;1.23;;;;;;;17.84;63.16;101253.03;10502252;28;20032;-66
2022/05/10 17:50:01;;;;;;;5.50;0.93;;;;;;;17.79;62.00;101248.31;10500262;28;20059;-67
2022/05/10 17:55:03;;;;;;;6.00;0.90;;;;;;;18.06;61.66;101253.34;10470971;28;20538;-67
2022/05/10 18:00:04;;;;;;;2.58;0.73;;;;;;;18.17;60.29;101231.78;10497951;28;20040;-67
2022/05/10 18:05:05;;;;;;;4.38;0.90;;;;;;;18.35;59.21;101249.66;10496563;28;20063;-67
2022/05/10 18:10:06;;;;;;;2.05;0.82;;;;;;;18.16;59.24;101246.84;10500269;28;20036;-66
2022/05/10 18:15:07;;;;;;;3.95;0.68;;;;;;;17.95;59.58;101258.19;10500582;28;20048;-67
2022/05/10 18:20:08;;;;;;;3.88;1.08;;;;;;;17.74;60.03;101246.41;10499556;28;20053;-67
2022/05/10 18:25:08;;;;;;;4.43;0.88;;;;;;;17.86;61.31;101256.34;10498651;28;20059;-67
2022/05/10 18:30:11;;;;;;;4.22;1.67;;;;;;;17.67;60.64;101262.66;10496436;28;20067;-67
2022/05/10 18:35:15;;;;;;;5.28;1.30;;;;;;;17.36;61.70;101264.84;10497866;28;20040;-68
2022/05/10 18:40:16;;;;;;;1.50;1.00;;;;;;;17.01;63.67;101252.88;10480450;28;20055;-68
2022/05/10 18:45:17;;;;;;;2.50;0.93;;;;;;;16.73;64.90;101271.91;10479414;28;20058;-66
2022/05/10 18:50:17;;;;;;;4.30;1.20;;;;;;;16.44;65.80;101270.94;10494969;28;20075;-67
2022/05/10 18:55:18;;;;;;;5.60;1.33;;;;;;;16.23;67.27;101281.31;10477266;28;20057;-67
2022/05/10 19:00:19;;;;;;;7.00;1.25;;;;;;;15.95;70.15;101283.56;10457369;28;20055;-67
2022/05/10 19:05:20;;;;;;;3.75;1.20;;;;;;;15.69;70.70;101296.66;10479162;28;20040;-66
2022/05/10 19:10:21;;;;;;;5.30;1.30;;;;;;;15.48;70.34;101302.19;10499206;28;20048;-67
2022/05/10 19:15:23;;;;;;;2.95;1.00;;;;;;;15.20;71.95;101288.84;10468604;28;20060;-68
2022/05/10 19:20:24;;;;;;;3.03;1.80;;;;;;;15.22;73.40;101309.66;10472357;28;20049;-68
2022/05/10 19:25:25;;;;;;;2.60;0.95;;;;;;;15.02;72.82;101304.88;10463521;28;20041;-68
2022/05/10 19:30:27;;;;;;;3.33;1.25;;;;;;;14.97;74.03;101313.22;10470365;28;20037;-68
2022/05/10 19:35:27;;;;;;;6.43;1.38;;;;;;;14.86;76.40;101328.13;10437876;28;20090;-68
2022/05/10 19:40:28;;;;;;;1.00;0.80;;;;;;;14.77;76.40;101324.22;10455499;28;20056;-68
2022/05/10 19:45:30;;;;;;;2.05;1.05;;;;;;;14.65;77.32;101322.50;10454105;28;20044;-68
2022/05/10 19:50:30;;;;;;;3.15;1.02;;;;;;;14.56;79.72;101323.31;10452326;28;20037;-68
2022/05/10 19:55:31;;;;;;;8.75;1.98;;;;;;;14.40;81.14;101331.50;10453742;28;20060;-68
2022/05/10 20:00:31;;;;;;;3.28;1.35;;;;;;;13.90;83.12;101289.38;10457129;28;20044;-68
2022/05/10 20:05:32;;;;;;;2.60;1.70;;;;;;;14.00;85.50;101334.88;10463819;28;20033;-67
2022/05/10 20:10:35;;;;;;;2.50;1.70;;;;;;;13.95;87.01;101338.41;10488864;28;20045;-67
2022/05/10 20:15:36;;;;;;;5.60;2.33;;;;;;;14.08;88.35;101339.91;10501021;28;20052;-68
2022/05/10 20:20:38;;;;;;;10.35;1.85;;;;;;;14.12;89.46;101349.34;10473624;28;20048;-68
2022/05/10 20:25:42;;;;;;;4.43;1.73;;;;;;;13.97;92.43;101330.69;10488307;28;20036;-68
2022/05/10 20:30:44;;;;;;;5.55;2.33;;;;;;;13.97;94.10;101343.69;10475812;28;20410;-68
2022/05/10 20:35:44;;;;;;;9.02;2.60;;;;;;;13.89;98.28;101332.03;10467037;28;20036;-67
2022/05/10 20:40:45;;;;;;;4.80;2.47;;;;;;;13.83;100.00;101332.22;10465764;28;20037;-67
2022/05/10 20:45:46;;;;;;;4.13;2.40;;;;;;;13.72;100.00;101336.84;10457838;28;20445;-69
2022/05/10 20:50:47;;;;;;;7.50;2.88;;;;;;;13.61;100.00;101341.47;10458202;28;20037;-68
2022/05/10 20:55:48;;;;;;;5.10;2.85;;;;;;;13.51;100.00;101342.22;10457822;28;20042;-68
2022/05/10 21:00:48;;;;;;;8.85;3.97;;;;;;;13.47;100.00;101329.16;10457040;28;20033;-68
2022/05/10 21:05:49;;;;;;;7.40;3.40;;;;;;;13.33;100.00;101317.69;10443593;28;20062;-67
2022/05/10 21:10:50;;;;;;;6.10;3.85;;;;;;;13.32;100.00;101327.09;10441888;28;20041;-68
2022/05/10 21:15:51;;;;;;;7.38;3.40;;;;;;;13.24;100.00;101324.78;10451837;28;20041;-68
2022/05/10 21:20:52;;;;;;;6.20;3.75;;;;;;;13.18;100.00;101328.59;10459314;28;20036;-69
2022/05/10 21:25:52;;;;;;;4.55;3.10;;;;;;;13.11;100.00;101323.28;10439999;28;20084;-68
2022/05/10 21:36:11;;;;;;;10.95;4.35;;;;;;;12.95;100.00;101310.38;10460992;28;20446;-68
2022/05/10 21:41:12;;;;;;;9.23;3.00;;;;;;;12.88;100.00;101296.78;10459561;28;20052;-68
2022/05/10 21:46:13;;;;;;;8.80;3.10;;;;;;;12.83;100.00;101286.47;10457299;28;20481;-68
2022/05/10 21:51:13;;;;;;;7.55;3.03;;;;;;;12.80;100.00;101281.47;10457276;28;20041;-68
2022/05/10 21:56:14;;;;;;;6.03;2.83;;;;;;;12.80;100.00;101281.47;10457120;28;20067;-68
2022/05/10 22:01:14;;;;;;;6.07;2.88;;;;;;;12.81;100.00;101287.84;10440348;28;20040;-67
2022/05/10 22:06:15;;;;;;;7.32;3.67;;;;;;;12.84;100.00;101284.56;10458266;28;20033;-67
2022/05/10 22:11:15;;;;;;;5.22;2.83;;;;;;;12.87;100.00;101278.50;10458273;28;20045;-68
2022/05/10 22:16:16;;;;;;;6.72;2.90;;;;;;;12.83;100.00;101266.31;10458033;28;20129;-68
2022/05/10 22:21:16;;;;;;;10.25;4.10;;;;;;;12.75;100.00;101261.25;10457536;28;20056;-67
2022/05/10 22:26:17;;;;;;;7.57;3.50;;;;;;;12.76;100.00;101274.81;10484179;28;20080;-68
2022/05/10 22:31:18;;;;;;;7.05;4.05;;;;;;;12.74;100.00;101273.41;10498793;28;20036;-67
2022/05/10 22:36:18;;;;;;;6.55;3.42;;;;;;;12.65;100.00;101284.91;10500372;28;20074;-68
2022/05/10 22:41:19;;;;;;;7.78;3.78;;;;;;;12.61;100.00;101272.72;10497270;28;20127;-68
2022/05/10 22:46:19;;;;;;;8.25;3.63;;;;;;;12.58;100.00;101256.63;10481049;28;20063;-68
2022/05/10 22:51:20;;;;;;;8.38;5.03;;;;;;;12.55;100.00;101264.59;10456858;28;20036;-68
2022/05/10 22:56:20;;;;;;;10.70;4.57;;;;;;;12.47;100.00;101249.34;10472193;28;20087;-67
2022/05/10 23:01:21;;;;;;;11.82;4.55;;;;;;;12.50;100.00;101246.03;10454398;28;20060;-67
2022/05/10 23:06:22;;;;;;;10.30;4.15;;;;;;;12.54;100.00;101244.44;10456645;28;20044;-68
2022/05/10 23:11:23;;;;;;;8.05;4.00;;;;;;;12.52;100.00;101246.63;10456648;28;20594;-68
2022/05/10 23:16:23;;;;;;;7.90;4.05;;;;;;;12.49;100.00;101242.47;10454600;28;20037;-68
2022/05/10 23:21:24;;;;;;;7.40;4.00;;;;;;;12.48;100.00;101237.19;10456603;28;20041;-66
2022/05/10 23:26:28;;;;;;;11.60;4.30;;;;;;;12.41;100.00;101234.63;10478581;28;20048;-68